createdAt,value
2022-12-29T00:00:01.578Z,7.30
2022-12-29T00:05:07.341Z,16.48
2022-12-29T00:10:12.915Z,17.60
2022-12-29T00:15:35.915Z,20.80
2022-12-29T00:20:58.837Z,13.43
2022-12-29T00:26:29.727Z,6.97
2022-12-29T00:31:51.635Z,7.85
2022-12-29T00:36:56.341Z,8.65
2022-12-29T00:42:37.035Z,8.00
2022-12-29T00:47:41.821Z,9.65
2022-12-29T00:52:46.234Z,9.90
2022-12-29T00:57:51.996Z,11.68
2022-12-29T01:02:56.578Z,7.90
2022-12-29T01:08:00.919Z,7.75
2022-12-29T01:13:06.847Z,8.55
2022-12-29T01:18:11.473Z,7.38
2022-12-29T01:23:16.261Z,10.05
2022-12-29T01:28:26.323Z,8.80
2022-12-29T01:33:30.929Z,6.60
2022-12-29T01:38:37.121Z,8.13
2022-12-29T01:43:46.801Z,7.82
2022-12-29T01:48:54.866Z,7.90
2022-12-29T01:54:03.396Z,6.57
2022-12-29T01:59:16.544Z,7.22
2022-12-29T02:04:21.639Z,7.25
2022-12-29T02:09:27.110Z,10.82
2022-12-29T02:14:33.258Z,8.80
2022-12-29T02:20:39.305Z,6.55
2022-12-29T02:26:25.997Z,7.97
2022-12-29T02:31:40.795Z,6.95
2022-12-29T02:36:57.977Z,7.63
2022-12-29T02:42:11.772Z,8.93
2022-12-29T02:47:26.073Z,7.05
2022-12-29T02:52:36.133Z,6.18
2022-12-29T02:57:40.835Z,7.57
2022-12-29T03:08:27.213Z,6.22
2022-12-29T03:13:59.127Z,7.35
2022-12-29T03:19:10.721Z,7.78
2022-12-29T03:24:16.756Z,8.75
2022-12-29T03:29:26.357Z,7.18
2022-12-29T03:34:50.614Z,7.53
2022-12-29T03:39:58.180Z,9.75
2022-12-29T03:45:02.756Z,6.28
2022-12-29T03:50:10.762Z,6.95
2022-12-29T03:55:18.425Z,9.45
2022-12-29T04:00:23.598Z,6.65
2022-12-29T04:05:29.818Z,7.43
2022-12-29T04:10:40.432Z,6.85
2022-12-29T04:15:46.278Z,7.72
2022-12-29T04:21:08.033Z,8.70
2022-12-29T04:26:31.182Z,10.20
2022-12-29T04:31:52.620Z,6.90
2022-12-29T04:37:01.713Z,7.35
2022-12-29T04:42:10.572Z,8.05
2022-12-29T04:47:17.783Z,8.65
2022-12-29T04:52:32.192Z,10.60
2022-12-29T04:57:36.933Z,5.97
2022-12-29T05:02:41.936Z,7.18
2022-12-29T05:07:51.196Z,6.00
2022-12-29T05:12:56.409Z,6.05
2022-12-29T05:18:01.404Z,7.82
2022-12-29T05:23:13.237Z,5.78
2022-12-29T05:28:27.341Z,8.55
2022-12-29T05:33:53.865Z,6.97
2022-12-29T05:39:00.545Z,9.20
2022-12-29T05:44:15.163Z,9.40
2022-12-29T05:49:26.889Z,8.02
2022-12-29T05:54:51.832Z,8.82
2022-12-29T05:59:59.571Z,8.23
2022-12-29T06:05:08.144Z,7.78
2022-12-29T06:10:19.331Z,7.63
2022-12-29T06:15:44.037Z,7.18
2022-12-29T06:20:49.755Z,7.55
2022-12-29T06:25:58.403Z,7.50
2022-12-29T06:31:06.233Z,7.05
2022-12-29T06:41:16.877Z,12.87
2022-12-29T06:46:58.528Z,8.75
2022-12-29T06:52:12.542Z,8.77
2022-12-29T06:57:19.310Z,8.77
2022-12-29T07:02:26.359Z,12.90
2022-12-29T07:07:36.873Z,7.10
2022-12-29T07:12:46.074Z,7.05
2022-12-29T07:17:54.168Z,9.60
2022-12-29T07:22:58.807Z,8.85
2022-12-29T07:28:05.241Z,9.90
2022-12-29T07:33:12.831Z,9.10
2022-12-29T07:38:22.923Z,10.00
2022-12-29T07:43:30.153Z,9.18
2022-12-29T07:49:01.647Z,9.73
2022-12-29T07:54:13.099Z,10.48
2022-12-29T07:59:19.526Z,14.05
2022-12-29T08:04:24.245Z,16.63
2022-12-29T08:09:28.759Z,11.25
2022-12-29T08:14:34.463Z,13.07
2022-12-29T08:19:39.672Z,10.02
2022-12-29T08:29:49.841Z,8.63
2022-12-29T08:34:54.038Z,9.07
2022-12-29T08:39:58.854Z,11.25
2022-12-29T08:45:05.837Z,11.38
2022-12-29T08:50:10.299Z,11.75
2022-12-29T08:55:14.681Z,8.55
2022-12-29T09:00:23.772Z,11.10
2022-12-29T09:05:29.173Z,8.55
2022-12-29T09:10:33.826Z,11.20
2022-12-29T09:15:40.579Z,11.10
2022-12-29T09:20:45.452Z,12.88
2022-12-29T09:25:55.867Z,8.63
2022-12-29T09:31:02.402Z,7.28
2022-12-29T09:36:07.331Z,6.65
2022-12-29T09:41:20.662Z,9.45
2022-12-29T09:46:30.593Z,13.45
2022-12-29T09:51:38.522Z,8.10
2022-12-29T09:56:43.091Z,12.30
2022-12-29T10:12:48.850Z,9.98
2022-12-29T10:18:03.102Z,8.32
2022-12-29T10:23:27.005Z,11.40
2022-12-29T10:28:41.057Z,11.00
2022-12-29T10:33:47.064Z,9.27
2022-12-29T10:39:04.352Z,9.38
2022-12-29T10:44:15.760Z,10.13
2022-12-29T10:49:22.730Z,9.50
2022-12-29T10:54:34.676Z,10.23
2022-12-29T10:59:39.624Z,10.73
2022-12-29T11:04:57.400Z,6.95
2022-12-29T11:10:21.652Z,8.70
2022-12-29T11:15:26.300Z,9.70
2022-12-29T11:20:38.643Z,8.35
2022-12-29T11:25:43.577Z,9.52
2022-12-29T11:31:00.958Z,14.97
2022-12-29T11:36:10.331Z,8.55
2022-12-29T11:41:22.074Z,9.25
2022-12-29T11:46:30.423Z,8.88
2022-12-29T11:51:45.238Z,10.07
2022-12-29T11:56:50.778Z,10.03
2022-12-29T12:01:56.034Z,7.57
2022-12-29T12:07:14.615Z,8.63
2022-12-29T12:12:30.162Z,12.70
2022-12-29T12:17:46.701Z,10.90
2022-12-29T12:23:04.156Z,9.02
2022-12-29T12:28:19.782Z,12.52
2022-12-29T12:33:31.027Z,9.32
2022-12-29T12:38:47.576Z,8.65
2022-12-29T12:43:57.930Z,9.45
2022-12-29T12:49:37.189Z,14.02
2022-12-29T12:55:03.083Z,9.77
2022-12-29T13:00:13.322Z,10.88
2022-12-29T13:05:37.683Z,10.90
2022-12-29T13:10:53.562Z,9.87
2022-12-29T13:16:13.813Z,11.88
2022-12-29T13:21:39.292Z,12.25
2022-12-29T13:26:50.530Z,13.70
2022-12-29T13:32:24.159Z,16.58
2022-12-29T13:37:33.591Z,15.85
2022-12-29T13:42:39.559Z,12.45
2022-12-29T13:47:49.936Z,14.30
2022-12-29T13:53:08.877Z,13.95
2022-12-29T13:58:27.771Z,17.42
2022-12-29T14:03:51.696Z,24.30
2022-12-29T14:08:59.314Z,18.40
2022-12-29T14:14:16.301Z,16.55
2022-12-29T14:19:26.531Z,24.25
2022-12-29T14:24:46.657Z,16.63
2022-12-29T14:29:53.605Z,16.38
2022-12-29T14:35:00.104Z,18.27
2022-12-29T14:40:08.365Z,17.67
2022-12-29T14:45:30.890Z,16.60
2022-12-29T14:50:44.385Z,19.50
2022-12-29T14:55:56.260Z,13.95
2022-12-29T15:01:02.721Z,17.35
2022-12-29T15:06:13.228Z,19.48
2022-12-29T15:11:24.189Z,16.60
2022-12-29T15:16:37.223Z,15.20
2022-12-29T15:21:44.791Z,23.00
2022-12-29T15:26:54.876Z,18.67
2022-12-29T15:32:03.369Z,15.48
2022-12-29T15:37:09.454Z,16.95
2022-12-29T15:42:54.400Z,14.48
2022-12-29T15:48:01.662Z,15.73
2022-12-29T15:53:14.029Z,15.00
2022-12-29T15:58:24.848Z,15.15
2022-12-29T16:03:35.120Z,14.98
2022-12-29T16:08:41.951Z,16.90
2022-12-29T16:13:46.637Z,16.13
2022-12-29T16:18:58.090Z,15.50
2022-12-29T16:24:07.496Z,14.48
2022-12-29T16:29:15.743Z,15.60
2022-12-29T16:34:28.004Z,14.63
2022-12-29T16:39:37.244Z,13.07
2022-12-29T16:44:41.467Z,14.30
2022-12-29T16:49:55.284Z,15.80
2022-12-29T16:55:03.171Z,12.68
2022-12-29T17:00:19.921Z,16.10
2022-12-29T17:05:26.891Z,14.10
2022-12-29T17:10:51.578Z,11.90
2022-12-29T17:15:55.890Z,16.57
2022-12-29T17:21:01.902Z,14.70
2022-12-29T17:26:14.985Z,15.07
2022-12-29T17:31:19.592Z,17.15
2022-12-29T17:36:26.390Z,15.70
2022-12-29T17:41:31.342Z,15.13
2022-12-29T17:46:36.545Z,15.98
2022-12-29T17:51:43.768Z,16.80
2022-12-29T17:56:48.169Z,16.00
2022-12-29T18:01:52.724Z,16.30
2022-12-29T18:06:58.347Z,16.25
2022-12-29T18:12:02.826Z,16.15
2022-12-29T18:17:13.904Z,17.88
2022-12-29T18:22:19.529Z,15.43
2022-12-29T18:27:23.721Z,18.48
2022-12-29T18:32:28.349Z,21.33
2022-12-29T18:37:34.223Z,15.50
2022-12-29T18:42:38.765Z,14.88
2022-12-29T18:47:43.223Z,13.45
2022-12-29T18:52:48.955Z,14.52
2022-12-29T18:57:53.661Z,14.57
2022-12-29T19:02:57.901Z,14.43
2022-12-29T19:08:03.721Z,17.95
2022-12-29T19:13:08.536Z,20.27
2022-12-29T19:23:45.418Z,15.05
2022-12-29T19:28:49.939Z,18.13
2022-12-29T19:33:54.578Z,18.63
2022-12-29T19:39:00.518Z,17.52
2022-12-29T19:44:05.379Z,19.85
2022-12-29T19:49:09.581Z,17.20
2022-12-29T19:54:15.395Z,18.50
2022-12-29T19:59:19.868Z,17.92
2022-12-29T20:04:24.449Z,17.25
2022-12-29T20:09:30.237Z,18.77
2022-12-29T20:14:34.751Z,22.80
2022-12-29T20:19:40.696Z,23.40
2022-12-29T20:24:50.123Z,18.90
2022-12-29T20:29:55.092Z,17.13
2022-12-29T20:34:59.542Z,19.23
2022-12-29T20:40:06.354Z,18.38
2022-12-29T20:45:11.668Z,24.80
2022-12-29T20:50:16.347Z,24.85
2022-12-29T20:55:22.484Z,25.25
2022-12-29T21:00:30.784Z,22.40
2022-12-29T21:05:39.021Z,18.85
2022-12-29T21:10:48.279Z,23.63
2022-12-29T21:15:58.141Z,19.58
2022-12-29T21:21:05.411Z,27.38
2022-12-29T21:26:12.514Z,22.00
2022-12-29T21:31:27.056Z,20.48
2022-12-29T21:36:32.930Z,24.38
2022-12-29T21:41:38.759Z,15.90
2022-12-29T21:46:44.203Z,20.50
2022-12-29T21:51:51.012Z,17.70
2022-12-29T21:56:56.844Z,23.13
2022-12-29T22:02:18.637Z,20.40
2022-12-29T22:07:40.345Z,17.80
2022-12-29T22:13:01.290Z,21.00
2022-12-29T22:18:06.462Z,24.17
2022-12-29T22:28:16.884Z,25.50
2022-12-29T22:33:21.692Z,18.38
2022-12-29T22:38:25.964Z,22.25
2022-12-29T22:43:32.098Z,22.30
2022-12-29T22:48:40.288Z,19.00
2022-12-29T22:53:50.393Z,19.45
2022-12-29T22:58:56.073Z,19.27
2022-12-29T23:04:25.942Z,19.27
2022-12-29T23:09:24.936Z,17.23
2022-12-29T23:14:30.542Z,16.33
2022-12-29T23:19:34.853Z,16.77
2022-12-29T23:24:39.320Z,20.15
2022-12-29T23:29:45.108Z,16.85
2022-12-29T23:34:49.833Z,20.33
2022-12-29T23:39:54.028Z,18.73
2022-12-29T23:44:59.948Z,22.13
2022-12-29T23:50:14.701Z,20.40
2022-12-29T23:55:19.900Z,16.05
